Villegreen, Colorado
Current Conditions -  °F | °C
As of 7:53 AM on Saturday 22 Nov 2014 (Local Time) from KLHX Reporting Station
Clear Clear  
Wind Chill: 32°   Ceiling: Unl
Heat Index: 37°   Visibility: 10mi
Dew Point: 26°   Wind: 6mph
Humidity: 65%   Direction: 240°WSW
Pressure: 29.87"   Gusts: NA
Location:  37.331°N, 103.371°W
Report Text: KLHX 221453Z AUTO 24005KT 10SM CLR 03/M03 A2987 RMK AO2 SLP114 T00281033 58016
Loading
Personal Weather Stations






























Interactive Weather Map New forecast layout! Learn more

10-Day Weather Forecast

Advertisements
Track Severe Weather on mobile